createdAt,value
2023-03-06T00:01:59.261Z,4.83
2023-03-06T00:07:06.648Z,6.10
2023-03-06T00:12:12.875Z,6.17
2023-03-06T00:17:20.834Z,6.53
2023-03-06T00:22:26.342Z,5.83
2023-03-06T00:27:31.359Z,5.90
2023-03-06T00:32:40.181Z,6.03
2023-03-06T00:37:45.789Z,6.37
2023-03-06T00:42:51.807Z,5.67
2023-03-06T00:48:00.491Z,5.77
2023-03-06T00:53:05.619Z,7.77
2023-03-06T00:58:10.586Z,6.77
2023-03-06T01:03:21.254Z,6.43
2023-03-06T01:08:28.329Z,7.47
2023-03-06T01:13:34.885Z,5.60
2023-03-06T01:18:43.041Z,7.03
2023-03-06T01:23:48.040Z,7.90
2023-03-06T01:28:54.530Z,6.57
2023-03-06T01:34:02.428Z,7.47
2023-03-06T01:39:07.744Z,8.37
2023-03-06T01:44:13.903Z,6.03
2023-03-06T01:49:24.047Z,5.70
2023-03-06T01:54:33.879Z,5.53
2023-03-06T01:59:43.071Z,10.77
2023-03-06T02:04:51.536Z,7.03
2023-03-06T02:10:00.690Z,9.03
2023-03-06T02:15:07.045Z,7.80
2023-03-06T02:20:23.257Z,8.90
2023-03-06T02:25:40.800Z,9.97
2023-03-06T02:30:49.110Z,7.83
2023-03-06T02:35:56.427Z,9.80
2023-03-06T02:41:06.774Z,8.80
2023-03-06T02:46:11.802Z,7.23
2023-03-06T02:51:17.049Z,8.00
2023-03-06T02:56:25.114Z,10.03
2023-03-06T03:01:30.454Z,10.33
2023-03-06T03:06:35.630Z,14.80
2023-03-06T03:11:43.733Z,16.07
2023-03-06T03:16:48.745Z,15.33
2023-03-06T03:21:53.752Z,14.03
2023-03-06T03:27:06.999Z,9.87
2023-03-06T03:32:12.471Z,13.10
2023-03-06T03:37:21.877Z,10.70
2023-03-06T03:42:29.504Z,9.80
2023-03-06T03:47:37.882Z,11.53
2023-03-06T03:52:43.831Z,13.20
2023-03-06T03:57:53.016Z,11.37
2023-03-06T04:02:58.178Z,12.20
2023-03-06T04:08:11.410Z,11.63
2023-03-06T04:13:23.122Z,11.43
2023-03-06T04:18:29.419Z,11.70
2023-03-06T04:23:38.422Z,8.93
2023-03-06T04:28:46.826Z,9.60
2023-03-06T04:33:52.937Z,10.20
2023-03-06T04:38:58.297Z,9.23
2023-03-06T04:44:06.988Z,13.60
2023-03-06T04:49:15.362Z,12.10
2023-03-06T04:54:20.287Z,8.90
2023-03-06T04:59:28.305Z,10.97
2023-03-06T05:04:33.637Z,15.33
2023-03-06T05:09:39.328Z,12.87
2023-03-06T05:14:49.062Z,9.10
2023-03-06T05:19:55.094Z,14.23
2023-03-06T05:25:00.688Z,10.07
2023-03-06T05:30:10.031Z,10.20
2023-03-06T05:35:21.223Z,12.30
2023-03-06T05:40:26.160Z,10.40
2023-03-06T05:45:33.752Z,11.40
2023-03-06T05:50:43.853Z,12.07
2023-03-06T05:55:48.784Z,17.33
2023-03-06T06:00:56.896Z,15.80
2023-03-06T06:06:02.387Z,25.57
2023-03-06T06:11:14.173Z,18.27
2023-03-06T06:16:23.024Z,13.27
2023-03-06T06:21:28.744Z,15.77
2023-03-06T06:26:36.494Z,27.67
2023-03-06T06:31:47.776Z,24.00
2023-03-06T06:36:54.464Z,19.37
2023-03-06T06:42:15.408Z,26.40
2023-03-06T06:47:30.595Z,18.33
2023-03-06T06:52:37.592Z,24.83
2023-03-06T06:57:51.829Z,23.70
2023-03-06T07:03:04.977Z,21.67
2023-03-06T07:08:10.098Z,18.97
2023-03-06T07:13:16.387Z,19.50
2023-03-06T07:18:30.213Z,16.77
2023-03-06T07:23:35.476Z,23.07
2023-03-06T07:28:52.076Z,20.20
2023-03-06T07:34:01.905Z,23.07
2023-03-06T07:39:08.136Z,22.47
2023-03-06T07:44:17.089Z,20.47
2023-03-06T07:49:25.332Z,16.83
2023-03-06T07:54:36.356Z,22.20
2023-03-06T07:59:42.180Z,16.13
2023-03-06T08:04:57.734Z,19.67
2023-03-06T08:10:02.794Z,23.87
2023-03-06T08:15:08.961Z,19.73
2023-03-06T08:20:18.693Z,15.13
2023-03-06T08:25:25.072Z,22.83
2023-03-06T08:30:30.491Z,18.00
2023-03-06T08:35:38.371Z,21.07
2023-03-06T08:40:46.669Z,20.17
2023-03-06T08:45:55.216Z,20.90
2023-03-06T08:51:02.926Z,20.13
2023-03-06T08:56:08.746Z,27.67
2023-03-06T09:01:17.206Z,18.77
2023-03-06T09:06:28.542Z,22.07
2023-03-06T09:11:35.462Z,22.03
2023-03-06T09:16:40.723Z,16.50
2023-03-06T09:21:49.755Z,21.40
2023-03-06T09:26:54.736Z,26.27
2023-03-06T09:31:59.785Z,18.37
2023-03-06T09:37:07.964Z,18.57
2023-03-06T09:42:20.279Z,18.53
2023-03-06T09:47:52.408Z,27.53
2023-03-06T09:53:16.305Z,26.52
2023-03-06T09:58:25.278Z,20.67
2023-03-06T10:03:34.145Z,22.30
2023-03-06T10:08:54.084Z,18.40
2023-03-06T10:14:16.248Z,20.00
2023-03-06T10:19:24.837Z,20.70
2023-03-06T10:24:46.576Z,21.43
2023-03-06T10:30:03.286Z,17.53
2023-03-06T10:35:19.019Z,24.37
2023-03-06T10:40:38.423Z,24.13
2023-03-06T10:45:52.530Z,25.00
2023-03-06T10:51:18.437Z,24.47
2023-03-06T10:56:37.476Z,24.07
2023-03-06T11:01:43.856Z,23.80
2023-03-06T11:06:50.706Z,18.50
2023-03-06T11:12:26.125Z,21.07
2023-03-06T11:17:33.304Z,23.27
2023-03-06T11:22:39.635Z,21.07
2023-03-06T11:27:59.634Z,22.27
2023-03-06T11:33:18.828Z,22.40
2023-03-06T11:38:30.907Z,24.07
2023-03-06T11:43:45.377Z,24.67
2023-03-06T11:48:55.899Z,23.80
2023-03-06T11:54:03.110Z,23.33
2023-03-06T11:59:27.917Z,26.10
2023-03-06T12:04:43.780Z,26.60
2023-03-06T12:09:56.801Z,28.07
2023-03-06T12:15:22.772Z,27.57
2023-03-06T12:20:46.513Z,25.03
2023-03-06T12:26:00.649Z,29.88
2023-03-06T12:31:39.042Z,31.77
2023-03-06T12:36:56.820Z,39.00
2023-03-06T12:42:23.827Z,31.03
2023-03-06T12:47:40.410Z,23.33
2023-03-06T12:52:46.201Z,26.37
2023-03-06T12:58:01.783Z,24.83
2023-03-06T13:03:20.332Z,25.67
2023-03-06T13:08:55.585Z,24.10
2023-03-06T13:14:05.532Z,23.47
2023-03-06T13:19:23.021Z,24.27
2023-03-06T13:24:37.364Z,24.33
2023-03-06T13:30:18.400Z,26.03
2023-03-06T13:35:58.795Z,21.85
2023-03-06T13:41:38.414Z,22.77
2023-03-06T13:46:44.195Z,21.93
2023-03-06T13:52:10.393Z,22.40
2023-03-06T13:57:38.362Z,17.87
2023-03-06T14:03:04.140Z,17.77
2023-03-06T14:08:29.952Z,16.80
2023-03-06T14:14:03.670Z,13.07
2023-03-06T14:19:22.208Z,17.10
2023-03-06T14:24:38.260Z,15.73
2023-03-06T14:29:47.687Z,15.47
2023-03-06T14:34:55.048Z,16.67
2023-03-06T14:40:03.929Z,20.67
2023-03-06T14:45:18.897Z,21.17
2023-03-06T14:50:28.239Z,26.53
2023-03-06T14:55:38.910Z,21.73
2023-03-06T15:00:49.616Z,21.10
2023-03-06T15:06:17.506Z,22.73
2023-03-06T15:11:28.741Z,21.40
2023-03-06T15:16:35.387Z,19.87
2023-03-06T15:21:41.801Z,19.30
2023-03-06T15:26:56.012Z,19.87
2023-03-06T15:32:16.957Z,15.77
2023-03-06T15:37:28.607Z,19.40
2023-03-06T15:42:39.799Z,17.00
2023-03-06T15:47:45.972Z,16.77
2023-03-06T15:52:55.026Z,17.00
2023-03-06T15:58:05.534Z,16.23
2023-03-06T16:03:13.138Z,20.47
2023-03-06T16:08:18.145Z,14.70
2023-03-06T16:13:30.129Z,13.43
2023-03-06T16:18:35.527Z,14.40
2023-03-06T16:23:45.290Z,14.83
2023-03-06T16:28:53.116Z,16.67
2023-03-06T16:34:00.511Z,17.37
2023-03-06T16:39:06.307Z,15.37
2023-03-06T16:44:16.329Z,16.13
2023-03-06T16:49:23.943Z,19.03
2023-03-06T16:54:28.893Z,18.30
2023-03-06T16:59:36.544Z,14.33
2023-03-06T17:04:43.020Z,15.97
2023-03-06T17:09:50.258Z,13.23
2023-03-06T17:15:05.533Z,13.17
2023-03-06T17:20:15.541Z,17.73
2023-03-06T17:25:22.103Z,13.10
2023-03-06T17:30:31.104Z,10.63
2023-03-06T17:35:38.030Z,10.20
2023-03-06T17:40:43.130Z,12.20
2023-03-06T17:45:50.838Z,12.47
2023-03-06T17:50:57.042Z,13.07
2023-03-06T17:56:02.363Z,12.87
2023-03-06T18:01:16.662Z,13.90
2023-03-06T18:06:22.303Z,11.97
2023-03-06T18:11:27.930Z,12.07
2023-03-06T18:16:35.963Z,15.37
2023-03-06T18:21:41.129Z,18.27
2023-03-06T18:26:46.403Z,17.03
2023-03-06T18:31:54.081Z,15.47
2023-03-06T18:36:59.151Z,18.10
2023-03-06T18:42:04.152Z,15.67
2023-03-06T18:47:11.902Z,16.17
2023-03-06T18:52:16.976Z,17.10
2023-03-06T18:57:22.549Z,19.87
2023-03-06T19:02:30.200Z,21.37
2023-03-06T19:07:35.267Z,19.70
2023-03-06T19:12:40.297Z,17.93
2023-03-06T19:17:51.688Z,20.20
2023-03-06T19:22:59.301Z,19.57
2023-03-06T19:28:06.356Z,20.23
2023-03-06T19:33:15.732Z,25.67
2023-03-06T19:38:20.844Z,20.63
2023-03-06T19:43:25.966Z,24.03
2023-03-06T19:48:33.573Z,23.07
2023-03-06T19:53:38.987Z,24.60
2023-03-06T19:58:44.364Z,20.53
2023-03-06T20:03:52.367Z,19.73
2023-03-06T20:08:58.121Z,20.63
2023-03-06T20:14:05.077Z,21.80
2023-03-06T20:19:13.880Z,22.77
2023-03-06T20:24:19.475Z,22.73
2023-03-06T20:29:25.501Z,21.10
2023-03-06T20:34:33.710Z,23.57
2023-03-06T20:39:39.348Z,24.37
2023-03-06T20:44:44.403Z,23.33
2023-03-06T20:49:52.379Z,24.80
2023-03-06T20:54:58.799Z,25.13
2023-03-06T21:00:04.569Z,21.10
2023-03-06T21:05:13.052Z,25.90
2023-03-06T21:10:18.470Z,20.53
2023-03-06T21:15:27.243Z,18.63
2023-03-06T21:20:34.862Z,23.10
2023-03-06T21:25:50.236Z,19.30
2023-03-06T21:30:55.276Z,18.53
2023-03-06T21:36:03.546Z,19.33
2023-03-06T21:41:13.453Z,18.80
2023-03-06T21:46:18.494Z,18.53
2023-03-06T21:51:27.029Z,19.83
2023-03-06T21:56:33.991Z,21.63
2023-03-06T22:01:42.709Z,16.37
2023-03-06T22:06:50.359Z,24.47
2023-03-06T22:11:55.410Z,23.10
2023-03-06T22:17:01.583Z,19.63
2023-03-06T22:22:10.738Z,18.70
2023-03-06T22:27:15.869Z,18.57
2023-03-06T22:32:20.822Z,22.17
2023-03-06T22:37:28.551Z,22.80
2023-03-06T22:42:36.409Z,19.70
2023-03-06T22:47:44.204Z,24.30
2023-03-06T22:52:52.911Z,22.70
2023-03-06T22:57:57.892Z,20.90
2023-03-06T23:03:02.973Z,23.10
2023-03-06T23:08:10.989Z,21.07
2023-03-06T23:13:16.192Z,22.17
2023-03-06T23:18:43.487Z,20.37
2023-03-06T23:24:10.592Z,21.20
2023-03-06T23:29:15.569Z,21.63
2023-03-06T23:34:20.506Z,22.03
2023-03-06T23:39:28.115Z,23.73
2023-03-06T23:44:33.263Z,25.23
2023-03-06T23:49:38.348Z,24.77
2023-03-06T23:54:45.902Z,26.33
2023-03-06T23:59:50.997Z,23.60
